Time;durP1;ratioP1;P1;durP2;ratioP2;P2;SDS_P1;SDS_P2;PMS_P1;PMS_P2;Temp;Humidity;BMP_temperature;BMP_pressure;BME280_temperature;BME280_humidity;BME280_pressure;Samples;Min_cycle;Max_cycle;Signal;HPM_P1;HPM_P2
2021/11/06 00:01:03;;;;;;;11.27;7.80;;;3.30;99.90;;;;;;4956005;28;20217;-74
2021/11/06 00:03:29;;;;;;;15.03;8.93;;;3.20;99.90;;;;;;4956145;28;20419;-75
2021/11/06 00:05:54;;;;;;;11.03;7.90;;;3.20;99.90;;;;;;4956491;28;20416;-75
2021/11/06 00:08:20;;;;;;;13.23;7.60;;;3.20;99.90;;;;;;4956219;28;20550;-74
2021/11/06 00:10:46;;;;;;;11.30;7.40;;;3.10;99.90;;;;;;4956359;28;20180;-74
2021/11/06 00:13:11;;;;;;;12.17;7.93;;;3.10;99.90;;;;;;4954783;29;20183;-74
2021/11/06 00:15:37;;;;;;;12.50;8.00;;;3.10;99.90;;;;;;4956382;28;20176;-74
2021/11/06 00:18:04;;;;;;;12.30;8.67;;;3.10;99.90;;;;;;4956256;28;20182;-75
2021/11/06 00:20:29;;;;;;;13.70;9.07;;;3.00;99.90;;;;;;4956104;28;21077;-75
2021/11/06 00:22:55;;;;;;;13.80;9.77;;;2.90;99.90;;;;;;4955756;28;20443;-74
2021/11/06 00:25:23;;;;;;;10.53;7.93;;;3.00;99.90;;;;;;4955945;28;20193;-75
2021/11/06 00:27:49;;;;;;;15.30;8.53;;;2.90;99.90;;;;;;4956373;28;20174;-74
2021/11/06 00:30:14;;;;;;;10.63;7.73;;;2.90;99.90;;;;;;4955686;28;20922;-74
2021/11/06 00:32:40;;;;;;;12.33;7.93;;;2.90;99.90;;;;;;4955644;28;20727;-74
2021/11/06 00:35:08;;;;;;;10.00;7.90;;;2.80;99.90;;;;;;4955087;28;20181;-74
2021/11/06 00:37:34;;;;;;;12.53;8.03;;;2.80;99.90;;;;;;4955947;28;20276;-75
2021/11/06 00:39:59;;;;;;;14.37;9.30;;;2.70;99.90;;;;;;4954470;29;20407;-74
2021/11/06 00:42:25;;;;;;;10.87;7.67;;;2.70;99.90;;;;;;4955213;28;20826;-74
2021/11/06 00:44:50;;;;;;;9.83;7.03;;;2.60;99.90;;;;;;4955834;28;20568;-74
2021/11/06 00:47:16;;;;;;;12.40;7.00;;;2.60;99.90;;;;;;4955677;28;20618;-74
2021/11/06 00:49:41;;;;;;;10.30;7.73;;;2.60;99.90;;;;;;4955537;28;20240;-73
2021/11/06 00:52:08;;;;;;;10.23;8.03;;;2.60;99.90;;;;;;4955343;28;20197;-74
2021/11/06 00:54:33;;;;;;;14.30;8.70;;;2.60;99.90;;;;;;4955409;28;20184;-74
2021/11/06 00:56:59;;;;;;;13.67;9.90;;;2.60;99.90;;;;;;4955679;28;20453;-74
2021/11/06 00:59:25;;;;;;;21.63;8.33;;;2.50;99.90;;;;;;4955178;28;20204;-74
2021/11/06 05:31:06;;;;;;;123.00;19.07;;;3.20;99.90;;;;;;5799177;23;20509;-73
2021/11/06 05:33:32;;;;;;;62.97;16.30;;;3.10;99.90;;;;;;4970265;28;20952;-72
2021/11/06 05:35:57;;;;;;;135.20;18.50;;;3.20;99.90;;;;;;4973222;28;20248;-74
2021/11/06 05:38:23;;;;;;;148.93;20.87;;;3.10;99.90;;;;;;4973950;28;20176;-74
2021/11/06 05:40:49;;;;;;;64.47;18.17;;;3.10;99.90;;;;;;4973759;28;20219;-75
2021/11/06 05:43:14;;;;;;;140.03;19.87;;;3.00;99.90;;;;;;4973751;28;20173;-75
2021/11/06 05:45:40;;;;;;;139.10;19.60;;;3.10;99.90;;;;;;4964878;28;20196;-75
2021/11/06 05:48:05;;;;;;;165.60;20.07;;;3.10;99.90;;;;;;4973084;28;20184;-75
2021/11/06 05:50:31;;;;;;;113.10;18.03;;;3.10;99.90;;;;;;4973701;28;20168;-75
2021/11/06 05:52:56;;;;;;;138.40;19.87;;;3.10;99.90;;;;;;4973636;28;20251;-75
2021/11/06 05:55:22;;;;;;;138.43;19.50;;;3.20;99.90;;;;;;4973669;28;20240;-75
2021/11/06 05:57:48;;;;;;;157.83;22.13;;;3.10;99.90;;;;;;4973727;28;20274;-74
2021/11/06 06:00:19;;;;;;;182.07;21.57;;;3.10;99.90;;;;;;4973553;28;20183;-75
2021/11/06 06:02:45;;;;;;;102.33;19.40;;;3.10;99.90;;;;;;4972930;28;20204;-74
2021/11/06 06:05:12;;;;;;;150.17;19.60;;;3.10;99.90;;;;;;4973368;28;20861;-74
2021/11/06 06:07:39;;;;;;;87.20;18.63;;;3.10;99.90;;;;;;4973539;28;20412;-75
2021/11/06 06:10:07;;;;;;;73.27;19.70;;;3.20;99.90;;;;;;4973347;28;20417;-74
2021/11/06 06:12:33;;;;;;;81.47;17.93;;;3.20;99.90;;;;;;4973211;28;21049;-74
2021/11/06 06:14:59;;;;;;;51.30;19.90;;;3.20;99.90;;;;;;4973454;28;20495;-75
2021/11/06 06:17:25;;;;;;;92.07;18.23;;;3.20;99.90;;;;;;4973014;28;20252;-73
2021/11/06 06:19:51;;;;;;;81.90;18.57;;;3.20;99.90;;;;;;4971777;28;20508;-70
2021/11/06 06:22:16;;;;;;;32.33;16.50;;;3.10;99.90;;;;;;4964328;28;20255;-73
2021/11/06 06:24:42;;;;;;;45.53;16.33;;;3.10;99.90;;;;;;4969976;28;20202;-72
2021/11/06 06:27:07;;;;;;;71.73;19.20;;;3.10;99.90;;;;;;4969639;28;20798;-72
2021/11/06 06:29:33;;;;;;;48.97;16.80;;;3.10;99.90;;;;;;4971289;28;20177;-74
2021/11/06 06:31:59;;;;;;;39.40;15.07;;;3.20;99.90;;;;;;4970919;28;20300;-72
2021/11/06 06:34:25;;;;;;;32.67;16.10;;;3.10;99.90;;;;;;4970922;28;20513;-72
2021/11/06 06:36:50;;;;;;;31.90;16.87;;;3.00;99.90;;;;;;4971427;28;20172;-73
2021/11/06 06:39:16;;;;;;;37.83;17.20;;;3.00;99.90;;;;;;4970978;28;20188;-73
2021/11/06 06:41:41;;;;;;;41.90;17.80;;;3.00;99.90;;;;;;4972263;28;20623;-73
2021/11/06 06:44:07;;;;;;;36.20;16.07;;;3.10;99.90;;;;;;4972257;28;20178;-71
2021/11/06 06:46:32;;;;;;;26.10;15.43;;;3.10;99.90;;;;;;4972930;28;20175;-72
2021/11/06 06:48:58;;;;;;;19.10;13.17;;;3.10;99.90;;;;;;4972586;28;20175;-73
2021/11/06 06:51:24;;;;;;;26.10;15.07;;;3.00;99.90;;;;;;4972618;28;20674;-73
2021/11/06 06:53:49;;;;;;;22.40;13.60;;;3.10;99.90;;;;;;4972255;28;20180;-73
2021/11/06 06:56:15;;;;;;;21.37;13.10;;;3.10;99.90;;;;;;4972620;28;20200;-73
2021/11/06 06:58:41;;;;;;;21.80;13.90;;;3.10;99.90;;;;;;4972421;28;20197;-72
2021/11/06 07:01:08;;;;;;;16.90;12.00;;;3.20;99.90;;;;;;4972093;28;20688;-71
2021/11/06 07:03:34;;;;;;;19.20;13.17;;;3.20;99.90;;;;;;4972276;28;20697;-71
2021/11/06 07:05:59;;;;;;;17.70;12.20;;;3.20;99.90;;;;;;4972281;28;20416;-70
2021/11/06 07:08:25;;;;;;;16.93;11.10;;;3.20;99.90;;;;;;4986195;28;20467;-70
2021/11/06 07:10:50;;;;;;;17.00;12.33;;;3.20;99.90;;;;;;4970558;28;20267;-72
2021/11/06 07:13:20;;;;;;;16.77;11.63;;;3.40;99.90;;;;;;4968742;28;20197;-74
2021/11/06 07:15:50;;;;;;;14.63;10.93;;;3.70;99.90;;;;;;4972613;28;20174;-73
2021/11/06 07:18:15;;;;;;;13.47;9.33;;;4.40;99.90;;;;;;4972406;28;20419;-73
2021/11/06 07:20:41;;;;;;;12.20;9.03;;;5.10;99.90;;;;;;4960048;28;20429;-72
2021/11/06 07:23:07;;;;;;;12.83;9.73;;;5.40;99.90;;;;;;4953132;28;20263;-73
2021/11/06 07:25:33;;;;;;;13.67;9.13;;;5.40;99.90;;;;;;4953189;28;20255;-74
2021/11/06 07:27:58;;;;;;;14.17;10.10;;;5.30;99.90;;;;;;4958473;28;20184;-73
2021/11/06 07:30:24;;;;;;;15.90;11.27;;;5.10;99.90;;;;;;4972315;28;20416;-71
2021/11/06 07:32:50;;;;;;;14.17;10.33;;;4.90;99.90;;;;;;4959265;28;20740;-73
2021/11/06 07:35:16;;;;;;;17.60;11.13;;;4.70;99.90;;;;;;4953056;28;20425;-72
2021/11/06 07:37:42;;;;;;;16.37;10.50;;;4.60;99.90;;;;;;4953245;28;20205;-72
2021/11/06 07:40:11;;;;;;;18.10;11.07;;;4.40;99.90;;;;;;4954792;28;20993;-73
2021/11/06 07:42:39;;;;;;;14.90;10.50;;;4.50;99.90;;;;;;4956601;28;20217;-72
2021/11/06 07:45:06;;;;;;;17.40;11.50;;;4.30;99.90;;;;;;4956752;28;20473;-73
2021/11/06 07:47:32;;;;;;;18.50;12.03;;;4.30;99.90;;;;;;4956687;28;20410;-73
2021/11/06 07:49:57;;;;;;;19.17;12.60;;;4.30;99.90;;;;;;4956735;28;20497;-73
2021/11/06 07:52:23;;;;;;;21.07;11.33;;;4.20;99.90;;;;;;4956324;28;20252;-73
2021/11/06 07:54:49;;;;;;;17.13;10.80;;;4.00;99.90;;;;;;4956744;28;20213;-72
2021/11/06 07:57:14;;;;;;;19.07;10.80;;;4.10;99.90;;;;;;4956442;28;20185;-73
2021/11/06 07:59:40;;;;;;;20.77;11.00;;;4.20;99.90;;;;;;4956576;28;20784;-72
2021/11/06 08:02:05;;;;;;;21.60;11.33;;;4.20;99.90;;;;;;4954991;28;20218;-69
2021/11/06 08:04:31;;;;;;;17.80;10.53;;;4.30;99.90;;;;;;4956339;28;20255;-73
2021/11/06 08:06:56;;;;;;;21.00;11.73;;;4.40;99.90;;;;;;4956604;28;20174;-73
2021/11/06 08:09:22;;;;;;;16.83;11.10;;;4.40;99.90;;;;;;4954941;28;20178;-72
2021/11/06 08:11:48;;;;;;;21.60;11.53;;;4.50;99.90;;;;;;4956371;28;20213;-73
2021/11/06 08:14:13;;;;;;;18.37;11.50;;;4.40;99.90;;;;;;4955937;28;20209;-73
2021/11/06 08:16:39;;;;;;;17.03;10.60;;;4.60;99.90;;;;;;4956416;28;20187;-73
2021/11/06 08:19:04;;;;;;;24.93;13.40;;;4.60;99.90;;;;;;4955963;28;20682;-73
2021/11/06 08:21:30;;;;;;;23.33;12.80;;;4.70;99.90;;;;;;4956133;28;20210;-74
2021/11/06 08:23:55;;;;;;;21.73;12.90;;;4.90;99.90;;;;;;4954616;28;20613;-72
2021/11/06 08:26:21;;;;;;;20.03;11.77;;;5.00;99.90;;;;;;4956147;28;20201;-72
2021/11/06 08:28:46;;;;;;;19.63;10.50;;;5.10;99.90;;;;;;4956201;28;20215;-73
2021/11/06 08:31:12;;;;;;;23.10;12.60;;;5.20;99.90;;;;;;4979682;28;20647;-71
2021/11/06 08:33:37;;;;;;;18.53;11.00;;;5.20;99.90;;;;;;4994509;28;20182;-71
2021/11/06 08:36:03;;;;;;;20.77;11.40;;;5.30;99.90;;;;;;4994345;28;20649;-70
2021/11/06 08:38:29;;;;;;;22.70;12.23;;;5.40;99.90;;;;;;4994589;28;20206;-70
2021/11/06 08:40:55;;;;;;;25.90;11.90;;;5.40;99.90;;;;;;4994170;28;20221;-71
2021/11/06 08:43:21;;;;;;;23.70;13.00;;;5.40;99.90;;;;;;4982966;28;20434;-71
2021/11/06 08:45:47;;;;;;;25.63;11.53;;;5.40;99.90;;;;;;4963866;28;20183;-70
2021/11/06 08:48:14;;;;;;;22.23;10.80;;;5.30;99.90;;;;;;4965141;28;20174;-70
2021/11/06 08:50:39;;;;;;;17.77;11.60;;;5.40;99.90;;;;;;4955322;28;20504;-70
2021/11/06 08:53:06;;;;;;;20.33;12.43;;;5.30;99.90;;;;;;4973433;28;20421;-70
2021/11/06 08:55:32;;;;;;;17.23;11.33;;;5.30;99.90;;;;;;4990362;28;20418;-69
2021/11/06 08:57:58;;;;;;;28.87;13.10;;;5.30;99.90;;;;;;4973447;28;20468;-69
2021/11/06 09:00:31;;;;;;;18.30;11.67;;;5.30;99.90;;;;;;4966084;28;20271;-70
2021/11/06 09:03:00;;;;;;;21.03;11.57;;;5.40;99.90;;;;;;4964446;28;20812;-70
2021/11/06 09:05:25;;;;;;;22.53;12.93;;;5.40;99.90;;;;;;4963345;28;20504;-70
2021/11/06 09:07:51;;;;;;;23.63;13.07;;;5.50;99.90;;;;;;4965108;28;20891;-72
2021/11/06 09:10:19;;;;;;;19.90;12.07;;;5.60;99.90;;;;;;4957576;28;20663;-71
2021/11/06 09:12:45;;;;;;;22.13;11.87;;;5.70;99.90;;;;;;4954836;28;20206;-72
2021/11/06 09:15:11;;;;;;;21.97;11.80;;;5.80;99.90;;;;;;4958290;28;20430;-72
2021/11/06 09:17:37;;;;;;;19.60;11.20;;;5.80;99.90;;;;;;4974506;28;20501;-72
2021/11/06 09:20:05;;;;;;;18.20;11.30;;;5.80;99.90;;;;;;4974379;28;20400;-72
2021/11/06 09:22:31;;;;;;;19.90;10.70;;;5.80;99.90;;;;;;4973857;28;20997;-71
2021/11/06 09:24:57;;;;;;;15.13;10.17;;;6.00;99.90;;;;;;4974544;28;20449;-71
2021/11/06 09:27:23;;;;;;;19.30;10.83;;;6.10;99.90;;;;;;4974117;28;20420;-72
2021/11/06 09:29:49;;;;;;;23.10;11.67;;;6.10;99.90;;;;;;4974269;28;20195;-72
2021/11/06 09:32:15;;;;;;;21.67;11.10;;;6.20;99.90;;;;;;4973652;28;20505;-72
2021/11/06 09:34:41;;;;;;;20.07;10.83;;;6.20;99.90;;;;;;4974271;28;20903;-72
2021/11/06 09:37:08;;;;;;;20.30;12.33;;;6.30;99.90;;;;;;4974154;28;20180;-72
2021/11/06 09:39:35;;;;;;;19.57;11.90;;;6.20;99.90;;;;;;4974060;28;20412;-71
2021/11/06 09:42:02;;;;;;;23.00;12.53;;;6.30;99.90;;;;;;4973830;28;20469;-71
2021/11/06 09:44:30;;;;;;;24.63;12.60;;;6.40;99.90;;;;;;4972583;28;20434;-72
2021/11/06 09:46:57;;;;;;;23.10;13.23;;;6.50;99.90;;;;;;4974024;28;20799;-72
2021/11/06 09:49:23;;;;;;;21.10;12.03;;;6.50;99.90;;;;;;4973927;28;20568;-73
2021/11/06 09:51:49;;;;;;;24.47;13.90;;;6.40;99.90;;;;;;4973826;28;20542;-72
2021/11/06 09:54:15;;;;;;;21.63;12.10;;;6.60;99.90;;;;;;4973480;28;20264;-71
2021/11/06 09:56:40;;;;;;;14.63;11.43;;;6.30;99.90;;;;;;4973929;28;20180;-71
2021/11/06 09:59:06;;;;;;;20.60;12.90;;;6.40;99.90;;;;;;4973576;28;20956;-73
2021/11/06 10:01:33;;;;;;;23.93;13.07;;;6.60;99.90;;;;;;4973431;28;20558;-72
2021/11/06 10:04:00;;;;;;;19.10;12.10;;;6.80;99.90;;;;;;4972959;28;20418;-72
2021/11/06 10:06:27;;;;;;;30.33;13.17;;;7.00;99.90;;;;;;4973556;28;20429;-71
2021/11/06 10:08:56;;;;;;;23.37;12.40;;;7.40;99.90;;;;;;4973324;28;20456;-72
2021/11/06 10:11:26;;;;;;;25.47;13.27;;;7.50;99.90;;;;;;4973254;28;20526;-72
2021/11/06 10:13:59;;;;;;;22.40;12.30;;;7.70;99.90;;;;;;4973209;28;20408;-72
2021/11/06 10:16:40;;;;;;;22.10;12.47;;;8.30;99.90;;;;;;4973246;28;20425;-71
2021/11/06 10:19:08;;;;;;;19.33;11.93;;;8.90;99.90;;;;;;4973230;28;20451;-72
2021/11/06 10:21:34;;;;;;;20.40;12.90;;;9.30;99.90;;;;;;4973129;28;20503;-73
2021/11/06 10:24:00;;;;;;;22.20;12.80;;;9.70;99.90;;;;;;4973176;28;20880;-72
2021/11/06 10:26:26;;;;;;;22.30;11.97;;;10.20;99.90;;;;;;4981294;28;20600;-72
2021/11/06 10:29:17;;;;;;;18.07;11.67;;;10.30;99.90;;;;;;4992694;28;20171;-73
2021/11/06 10:31:55;;;;;;;30.33;13.00;;;10.20;99.90;;;;;;4992390;28;20455;-71
2021/11/06 10:34:22;;;;;;;25.07;14.00;;;10.50;99.90;;;;;;4992934;28;20472;-71
2021/11/06 10:37:12;;;;;;;19.10;12.93;;;10.70;99.90;;;;;;4993504;28;20379;-72
2021/11/06 10:39:55;;;;;;;26.50;12.93;;;10.60;99.90;;;;;;4982704;28;20422;-71
2021/11/06 10:42:20;;;;;;;23.60;13.80;;;10.50;99.90;;;;;;4966228;28;20902;-71
2021/11/06 10:44:46;;;;;;;18.90;12.97;;;10.50;99.90;;;;;;4972183;28;20949;-72
2021/11/06 10:47:12;;;;;;;17.43;12.63;;;10.70;99.90;;;;;;4972250;28;20181;-72
2021/11/06 10:49:40;;;;;;;19.70;13.40;;;10.60;99.90;;;;;;4967927;28;20261;-72
2021/11/06 10:52:10;;;;;;;22.73;14.13;;;10.50;99.90;;;;;;4971947;28;20533;-71
2021/11/06 10:55:08;;;;;;;24.43;12.50;;;10.40;99.90;;;;;;4973401;28;20517;-72
2021/11/06 10:57:35;;;;;;;20.87;14.70;;;10.50;99.90;;;;;;4969131;28;20421;-72
2021/11/06 11:00:10;;;;;;;22.70;13.70;;;10.50;99.90;;;;;;4972847;28;20418;-72
2021/11/06 11:02:37;;;;;;;24.83;13.60;;;10.70;99.90;;;;;;4973244;28;20475;-72
2021/11/06 11:05:03;;;;;;;20.20;13.00;;;10.60;99.90;;;;;;4986998;28;20805;-72
2021/11/06 11:07:28;;;;;;;19.03;12.93;;;10.50;99.90;;;;;;4992050;28;20416;-72
2021/11/06 11:09:54;;;;;;;23.77;14.23;;;10.20;99.90;;;;;;4981083;28;20422;-72
2021/11/06 11:12:20;;;;;;;18.13;13.43;;;10.20;99.90;;;;;;4972085;28;20601;-71
2021/11/06 11:14:56;;;;;;;22.07;14.87;;;10.10;99.90;;;;;;4975825;28;20549;-71
2021/11/06 11:17:42;;;;;;;18.20;13.63;;;10.20;99.90;;;;;;4976572;28;20270;-70
2021/11/06 11:20:31;;;;;;;23.10;14.00;;;10.10;99.90;;;;;;4987168;28;20502;-72
2021/11/06 11:23:12;;;;;;;22.47;14.73;;;9.90;99.90;;;;;;4995042;28;20557;-72
2021/11/06 11:25:40;;;;;;;21.73;14.73;;;9.70;99.90;;;;;;4996066;28;20410;-73
2021/11/06 11:28:05;;;;;;;25.87;15.50;;;9.60;99.90;;;;;;4990706;28;20423;-73
2021/11/06 11:30:31;;;;;;;28.20;15.27;;;9.70;99.90;;;;;;4971674;28;20431;-71
2021/11/06 11:32:59;;;;;;;25.83;16.00;;;9.70;99.90;;;;;;4974447;28;20194;-71
2021/11/06 11:35:25;;;;;;;25.50;13.70;;;9.70;99.90;;;;;;4975109;28;20176;-72
2021/11/06 11:38:00;;;;;;;21.53;14.27;;;9.70;99.90;;;;;;4976206;28;20427;-72
2021/11/06 11:40:30;;;;;;;23.40;15.37;;;9.90;99.90;;;;;;4975985;28;20435;-72
2021/11/06 11:43:06;;;;;;;23.77;15.10;;;9.90;99.90;;;;;;4971421;28;20511;-72
2021/11/06 11:45:49;;;;;;;23.07;15.13;;;9.60;99.90;;;;;;4956560;28;20472;-71
2021/11/06 11:48:21;;;;;;;25.60;17.03;;;9.60;99.90;;;;;;4958624;28;20458;-71
2021/11/06 11:50:48;;;;;;;24.90;16.63;;;9.30;99.90;;;;;;4980528;28;20442;-71
2021/11/06 11:53:31;;;;;;;26.63;16.17;;;9.20;99.90;;;;;;4986914;28;20421;-71
2021/11/06 11:56:05;;;;;;;26.37;16.07;;;9.10;99.90;;;;;;4975857;28;20427;-71
2021/11/06 11:58:36;;;;;;;27.90;16.40;;;8.90;99.90;;;;;;4975881;28;20903;-70
2021/11/06 12:01:03;;;;;;;35.20;16.93;;;8.70;99.90;;;;;;4975863;28;20831;-70
2021/11/06 12:03:30;;;;;;;26.43;16.77;;;8.80;99.90;;;;;;4975539;28;20411;-71
2021/11/06 12:05:56;;;;;;;32.73;18.37;;;8.70;99.90;;;;;;4975689;28;20402;-71
2021/11/06 12:08:21;;;;;;;28.23;17.77;;;8.50;99.90;;;;;;4974797;28;20423;-71
2021/11/06 12:10:55;;;;;;;33.07;19.10;;;8.40;99.90;;;;;;4975672;28;20202;-70
2021/11/06 12:13:32;;;;;;;26.07;17.17;;;8.50;99.90;;;;;;4975269;28;20177;-71
2021/11/06 12:16:07;;;;;;;36.20;18.43;;;8.40;99.90;;;;;;4973598;28;20424;-72
2021/11/06 12:18:32;;;;;;;35.07;18.40;;;8.40;99.90;;;;;;4973672;28;20800;-72
2021/11/06 12:21:22;;;;;;;31.23;19.33;;;8.40;99.90;;;;;;4972057;28;20447;-70
2021/11/06 12:23:51;;;;;;;30.00;18.20;;;8.50;99.90;;;;;;4969428;28;20677;-69
2021/11/06 12:26:26;;;;;;;32.80;19.30;;;8.50;99.90;;;;;;4974489;28;20444;-73
2021/11/06 12:29:07;;;;;;;38.33;19.80;;;8.60;99.90;;;;;;4975299;28;20409;-71
2021/11/06 12:31:39;;;;;;;31.63;18.13;;;8.60;99.90;;;;;;4975124;28;20467;-71
2021/11/06 12:34:07;;;;;;;30.53;17.87;;;8.50;99.90;;;;;;4974563;28;20429;-70
2021/11/06 12:36:39;;;;;;;30.53;18.73;;;8.70;99.90;;;;;;4968302;28;20999;-71
2021/11/06 12:39:04;;;;;;;27.47;18.20;;;8.70;99.90;;;;;;4972606;28;20434;-70
2021/11/06 12:41:37;;;;;;;30.50;20.07;;;8.70;99.90;;;;;;4975298;28;20480;-71
2021/11/06 12:44:07;;;;;;;30.80;18.80;;;8.80;99.90;;;;;;4975075;28;20261;-70
2021/11/06 12:46:37;;;;;;;28.70;18.63;;;8.90;99.90;;;;;;4975452;28;20425;-70
2021/11/06 12:49:05;;;;;;;32.17;19.53;;;8.90;99.90;;;;;;4975781;28;20985;-70
2021/11/06 12:51:33;;;;;;;30.43;19.30;;;8.90;99.90;;;;;;4974909;28;20456;-70
2021/11/06 12:54:04;;;;;;;33.93;21.77;;;8.80;99.90;;;;;;4971274;28;20480;-72
2021/11/06 12:56:41;;;;;;;33.07;20.77;;;8.70;99.90;;;;;;4974819;28;20884;-70
2021/11/06 12:59:14;;;;;;;33.83;21.57;;;8.70;99.90;;;;;;4974285;28;20422;-71
2021/11/06 13:01:53;;;;;;;86.93;44.53;;;8.60;99.90;;;;;;4974330;28;21060;-71
2021/11/06 13:04:19;;;;;;;77.17;35.87;;;8.50;99.90;;;;;;4974534;28;20415;-71
2021/11/06 13:06:49;;;;;;;33.37;20.30;;;8.50;99.90;;;;;;4974761;28;20419;-71
2021/11/06 13:09:26;;;;;;;66.27;35.13;;;8.50;99.90;;;;;;4974941;28;20176;-71
2021/11/06 13:11:57;;;;;;;81.10;40.10;;;8.60;99.90;;;;;;4965506;28;20445;-71
2021/11/06 13:14:28;;;;;;;45.93;25.97;;;8.60;99.90;;;;;;4974393;28;20949;-71
2021/11/06 13:17:16;;;;;;;75.40;38.97;;;8.60;99.90;;;;;;4974822;28;20422;-71
2021/11/06 13:19:47;;;;;;;39.57;23.60;;;8.60;99.90;;;;;;4974501;28;20427;-70
2021/11/06 13:22:15;;;;;;;33.90;21.30;;;8.50;99.90;;;;;;4973734;28;20531;-71
2021/11/06 13:25:09;;;;;;;42.80;28.43;;;8.60;99.90;;;;;;4975669;28;20419;-71
2021/11/06 13:27:51;;;;;;;34.20;21.10;;;8.60;99.90;;;;;;4973585;28;20419;-69
2021/11/06 13:30:19;;;;;;;34.70;21.93;;;8.50;99.90;;;;;;4974347;28;20421;-71
2021/11/06 13:32:52;;;;;;;33.80;20.63;;;8.60;99.90;;;;;;4973855;28;20968;-70
2021/11/06 13:35:18;;;;;;;37.63;24.93;;;8.60;99.90;;;;;;4974363;28;20437;-71
2021/11/06 13:37:44;;;;;;;50.03;29.07;;;8.60;99.90;;;;;;4965365;28;20471;-72
2021/11/06 13:40:10;;;;;;;41.00;25.97;;;8.60;99.90;;;;;;4974140;28;20922;-71
2021/11/06 13:42:36;;;;;;;33.20;23.43;;;8.60;99.90;;;;;;4974075;28;20473;-71
2021/11/06 13:45:11;;;;;;;34.33;21.23;;;8.60;99.90;;;;;;4976266;28;20178;-71
2021/11/06 13:47:44;;;;;;;29.60;18.23;;;8.70;99.90;;;;;;4974061;28;20183;-71
2021/11/06 13:50:10;;;;;;;40.17;22.80;;;8.70;99.90;;;;;;4973324;28;20446;-71
2021/11/06 13:52:36;;;;;;;41.07;22.30;;;8.70;99.90;;;;;;4973646;28;20824;-72
2021/11/06 13:55:11;;;;;;;34.37;21.17;;;8.70;99.90;;;;;;4974100;28;20787;-71
2021/11/06 13:57:36;;;;;;;33.07;19.90;;;8.70;99.90;;;;;;4973989;28;20450;-70
2021/11/06 14:00:11;;;;;;;37.57;20.57;;;8.80;99.90;;;;;;4974112;28;20474;-70
2021/11/06 14:02:42;;;;;;;138.97;86.63;;;8.80;99.90;;;;;;4973454;28;20308;-71
2021/11/06 14:05:10;;;;;;;45.13;27.60;;;8.80;99.90;;;;;;4973905;28;20452;-71
2021/11/06 14:07:43;;;;;;;37.70;23.07;;;8.90;99.90;;;;;;4973630;28;20422;-71
2021/11/06 14:10:14;;;;;;;39.50;24.30;;;8.80;99.90;;;;;;4973777;28;20421;-71
2021/11/06 14:12:42;;;;;;;42.13;24.37;;;8.80;99.90;;;;;;4972973;28;20978;-71
2021/11/06 14:15:31;;;;;;;55.93;31.90;;;8.70;99.90;;;;;;4973623;28;20799;-71
2021/11/06 14:18:12;;;;;;;43.63;23.77;;;8.60;99.90;;;;;;4973700;28;20843;-71
2021/11/06 14:20:44;;;;;;;40.70;24.00;;;8.50;99.90;;;;;;4973708;28;20894;-68
2021/11/06 14:23:41;;;;;;;42.87;24.83;;;8.50;99.90;;;;;;4973327;28;20782;-71
2021/11/06 14:26:15;;;;;;;38.53;23.27;;;8.40;99.90;;;;;;4972302;28;20991;-71
2021/11/06 14:28:56;;;;;;;44.50;27.00;;;8.50;99.90;;;;;;4972797;28;20963;-71
2021/11/06 14:31:37;;;;;;;44.23;25.30;;;8.40;99.90;;;;;;4973069;28;20464;-71
2021/11/06 14:34:24;;;;;;;40.43;23.60;;;8.30;99.90;;;;;;4973007;28;20415;-70
2021/11/06 14:37:17;;;;;;;46.20;25.63;;;8.30;99.90;;;;;;4972730;28;20451;-71
2021/11/06 14:40:00;;;;;;;44.90;24.60;;;8.20;99.90;;;;;;4973514;28;20937;-70
2021/11/06 14:42:31;;;;;;;48.33;26.07;;;8.10;99.90;;;;;;4971564;28;20476;-71
2021/11/06 14:44:57;;;;;;;44.53;25.33;;;8.00;99.90;;;;;;4973132;28;20421;-72
2021/11/06 14:47:26;;;;;;;44.80;26.13;;;8.00;99.90;;;;;;4972129;28;20426;-71
2021/11/06 14:49:57;;;;;;;49.37;26.10;;;7.90;99.90;;;;;;4974622;28;20188;-71
2021/11/06 14:52:30;;;;;;;49.20;28.07;;;7.90;99.90;;;;;;4972862;28;21079;-71
2021/11/06 14:55:05;;;;;;;46.10;26.97;;;7.90;99.90;;;;;;4969997;28;20447;-71
2021/11/06 14:57:33;;;;;;;50.90;27.83;;;7.80;99.90;;;;;;4968596;28;20420;-71
2021/11/06 15:00:12;;;;;;;49.60;28.67;;;7.70;99.90;;;;;;4972397;28;20931;-71
2021/11/06 15:02:59;;;;;;;49.93;27.60;;;7.60;99.90;;;;;;4971946;28;20616;-71
2021/11/06 15:05:34;;;;;;;51.90;29.03;;;7.50;99.90;;;;;;4971456;28;20421;-71
2021/11/06 15:08:05;;;;;;;54.73;28.30;;;7.30;99.90;;;;;;4972374;28;20454;-71
2021/11/06 15:10:31;;;;;;;56.00;29.03;;;7.20;99.90;;;;;;4972654;28;20448;-70
2021/11/06 15:12:57;;;;;;;50.20;27.97;;;7.20;99.90;;;;;;4972522;28;20459;-71
2021/11/06 15:15:23;;;;;;;51.43;29.53;;;7.10;99.90;;;;;;4972511;28;20250;-71
2021/11/06 15:17:52;;;;;;;52.23;28.10;;;7.00;99.90;;;;;;4970364;28;20838;-71
2021/11/06 15:20:19;;;;;;;55.30;27.10;;;7.00;99.90;;;;;;4971043;28;20591;-72
2021/11/06 15:22:44;;;;;;;59.50;30.30;;;6.80;99.90;;;;;;4974745;28;20529;-70
2021/11/06 15:25:11;;;;;;;58.97;30.20;;;6.70;99.90;;;;;;4971662;28;20427;-70
2021/11/06 15:27:36;;;;;;;55.60;28.57;;;6.60;99.90;;;;;;4970303;28;20215;-72
2021/11/06 15:30:03;;;;;;;52.27;28.80;;;6.60;99.90;;;;;;4968538;28;20897;-71
2021/11/06 15:32:28;;;;;;;55.40;28.27;;;6.50;99.90;;;;;;4971073;28;20231;-71
2021/11/06 15:34:54;;;;;;;49.97;28.60;;;6.40;99.90;;;;;;4972758;28;20918;-72
2021/11/06 15:37:20;;;;;;;54.70;29.63;;;6.40;99.90;;;;;;4972574;28;20715;-71
2021/11/06 15:39:48;;;;;;;58.37;28.50;;;6.30;99.90;;;;;;4972824;28;20178;-71
2021/11/06 15:42:15;;;;;;;63.33;30.13;;;6.30;99.90;;;;;;4972386;28;20437;-70
2021/11/06 15:44:40;;;;;;;53.97;27.83;;;6.20;99.90;;;;;;4971322;28;20754;-70
2021/11/06 15:47:06;;;;;;;50.50;29.13;;;6.10;99.90;;;;;;4970581;28;20426;-70
2021/11/06 15:49:32;;;;;;;55.97;31.77;;;6.10;99.90;;;;;;4966515;28;20199;-69
2021/11/06 15:51:58;;;;;;;65.97;29.90;;;6.00;99.90;;;;;;4953170;28;20561;-71
2021/11/06 15:54:23;;;;;;;55.70;29.70;;;6.00;99.90;;;;;;4960846;28;20184;-71
2021/11/06 15:56:50;;;;;;;61.83;31.30;;;6.00;99.90;;;;;;4965050;28;20458;-71
2021/11/06 15:59:15;;;;;;;56.87;30.27;;;5.90;99.90;;;;;;4971658;28;20185;-71
2021/11/06 16:01:44;;;;;;;56.87;29.00;;;5.90;99.90;;;;;;4974973;28;20486;-70
2021/11/06 16:04:10;;;;;;;57.03;29.90;;;5.80;99.90;;;;;;4975696;28;20208;-71
2021/11/06 16:06:36;;;;;;;53.80;30.90;;;5.80;99.90;;;;;;4976306;28;20479;-71
2021/11/06 16:09:03;;;;;;;53.37;28.20;;;5.80;99.90;;;;;;4975920;28;21059;-71
2021/11/06 16:11:29;;;;;;;62.70;32.10;;;5.70;99.90;;;;;;4975547;28;21288;-71
2021/11/06 16:13:55;;;;;;;58.70;31.70;;;5.60;99.90;;;;;;4975627;28;20440;-73
2021/11/06 16:16:23;;;;;;;61.33;30.93;;;5.60;99.90;;;;;;4975757;28;20562;-72
2021/11/06 16:18:52;;;;;;;59.10;31.53;;;5.60;99.90;;;;;;4975664;28;20401;-72
2021/11/06 16:21:21;;;;;;;58.93;31.07;;;5.50;99.90;;;;;;4974119;28;20991;-73
2021/11/06 16:23:46;;;;;;;66.23;30.37;;;5.50;99.90;;;;;;4975561;28;20419;-73
2021/11/06 16:26:12;;;;;;;65.23;33.90;;;5.40;99.90;;;;;;4975316;28;20422;-73
2021/11/06 16:28:38;;;;;;;63.70;32.13;;;5.30;99.90;;;;;;4975469;28;20194;-73
2021/11/06 16:31:03;;;;;;;65.60;31.53;;;5.30;99.90;;;;;;4975244;28;20325;-74
2021/11/06 16:33:30;;;;;;;62.23;33.07;;;5.30;99.90;;;;;;4975060;28;20269;-73
2021/11/06 16:35:56;;;;;;;65.10;31.10;;;5.20;99.90;;;;;;4975301;28;20664;-73
2021/11/06 16:38:22;;;;;;;68.70;31.37;;;5.10;99.90;;;;;;4975206;28;20425;-74
2021/11/06 16:40:48;;;;;;;65.33;32.60;;;5.00;99.90;;;;;;4975158;28;20444;-73
2021/11/06 16:43:14;;;;;;;80.07;33.30;;;5.00;99.90;;;;;;4966757;28;20622;-73
2021/11/06 16:45:41;;;;;;;76.13;34.40;;;5.00;99.90;;;;;;4975013;28;20179;-73
2021/11/06 16:48:10;;;;;;;75.70;33.60;;;4.90;99.90;;;;;;4975178;28;20453;-74
2021/11/06 16:50:36;;;;;;;63.53;32.70;;;4.90;99.90;;;;;;4974968;28;20410;-73
2021/11/06 16:53:03;;;;;;;66.83;32.80;;;4.90;99.90;;;;;;4974981;28;20426;-74
2021/11/06 16:55:29;;;;;;;70.13;33.13;;;4.90;99.90;;;;;;4975065;28;20433;-74
2021/11/06 16:57:54;;;;;;;75.30;35.67;;;4.90;99.90;;;;;;4975028;28;20790;-73
2021/11/06 17:00:20;;;;;;;76.43;34.47;;;4.80;99.90;;;;;;4974777;28;20180;-74
2021/11/06 17:02:47;;;;;;;77.83;34.83;;;4.80;99.90;;;;;;4974327;28;20553;-74
2021/11/06 17:05:15;;;;;;;66.90;32.97;;;4.90;99.90;;;;;;4963043;28;20177;-73
2021/11/06 17:07:44;;;;;;;60.93;30.97;;;4.90;99.90;;;;;;4960265;28;20456;-74
2021/11/06 17:12:43;;;;;;;62.30;29.27;;;5.00;99.90;;;;;;4973991;28;20490;-73
2021/11/06 17:15:09;;;;;;;61.00;30.27;;;5.10;99.90;;;;;;4974434;28;20425;-74